»·PEaware :: CGMWT KPDX-KSEA

CGMWT :: KPDX-KSEA

FLIGHT INFORMATION

Flight Status: Arrived
Operator: Unknown
More flights by this operator :: More flights under this callsign
Pilot: Konrad W. (32064)
Aircraft: Diamond DA-40
(DA40)
More flights by this aircraft type
Origin: KPDX Portland Intl
United States
Destination: KSEA Seattle-Tacoma Intl
United States
More flights between these airports :: More routes between these airports
Route: +
File this flight plan on PilotEdge
Remarks:
Altitude:
(Current/Filed)
3,500ft
Speed:
(Current/Filed)
0kts
Departed: 21-Oct-20 08:34 PM
Arrived: 21-Oct-20 09:52 PM
Distance/Time
Traveled:
112nm/1:17
Distance/Time
To Go:
Arrived

Flight Plot

Page will automatically refresh every two minutes.

Flight plan parsing failed; only flown route is shown


Map Options




Map Legend


Flown Route
Filed Route
Departure Airport
Arrival Airport
Navaid (VOR, NDB)
Fix

Horizontal Profiles

Position Reports

Time Latitude Longitude Heading Altitude Ground
Speed
21-Oct-20 20:24 45.586189 -122.581031 208 33ft 0kts
21-Oct-20 20:25 45.586189 -122.581031 208 33ft 0kts
21-Oct-20 20:26 45.586189 -122.581031 208 33ft 0kts
21-Oct-20 20:27 45.586189 -122.581031 208 33ft 0kts
21-Oct-20 20:28 45.586202 -122.580284 106 35ft 5kts
21-Oct-20 20:29 45.587650 -122.580510 298 37ft 26kts
21-Oct-20 20:30 45.592006 -122.591662 299 37ft 31kts
21-Oct-20 20:31 45.594534 -122.597412 47 30ft 0kts
21-Oct-20 20:32 45.594844 -122.596593 83 31ft 18kts
21-Oct-20 20:33 45.588591 -122.579762 119 137ft 87kts
21-Oct-20 20:34 45.575634 -122.545710 119 659ft 107kts
21-Oct-20 20:35 45.561463 -122.506490 97 1148ft 114kts
21-Oct-20 20:36 45.586496 -122.506185 335 1655ft 113kts
21-Oct-20 20:37 45.616190 -122.521149 339 2151ft 114kts
21-Oct-20 20:38 45.645981 -122.535145 339 2647ft 112kts
21-Oct-20 20:39 45.676288 -122.546228 343 3148ft 112kts
21-Oct-20 20:40 45.707961 -122.556800 343 3404ft 125kts
21-Oct-20 20:41 45.738396 -122.578019 315 3408ft 124kts
21-Oct-20 20:42 45.763863 -122.611189 315 3408ft 123kts
21-Oct-20 20:43 45.788613 -122.643452 315 3408ft 118kts
21-Oct-20 20:44 45.813056 -122.675338 315 3407ft 119kts
21-Oct-20 20:45 45.837635 -122.707527 315 3407ft 119kts
21-Oct-20 20:46 45.862089 -122.739647 315 3405ft 118kts
21-Oct-20 20:47 45.886434 -122.771714 315 3405ft 117kts
21-Oct-20 20:48 45.885797 -122.813524 258 3402ft 113kts
21-Oct-20 20:49 45.878500 -122.857275 258 3408ft 112kts
21-Oct-20 20:50 45.871214 -122.900843 258 3401ft 114kts
21-Oct-20 20:51 45.863888 -122.944545 258 3406ft 113kts
21-Oct-20 20:52 45.856657 -122.987615 259 3408ft 110kts
21-Oct-20 20:53 45.849577 -123.029783 259 3411ft 108kts
21-Oct-20 20:54 45.842387 -123.072543 259 3396ft 110kts
21-Oct-20 20:55 45.859313 -123.096756 12 3410ft 118kts
21-Oct-20 20:56 45.889680 -123.076290 21 3410ft 121kts
21-Oct-20 20:57 45.920155 -123.055452 20 3395ft 119kts
21-Oct-20 20:58 45.949936 -123.035016 20 3407ft 118kts
21-Oct-20 20:59 45.979952 -123.014404 21 3410ft 121kts
21-Oct-20 21:00 46.009608 -122.993479 20 3413ft 117kts
21-Oct-20 21:01 46.038850 -122.972909 20 3414ft 119kts
21-Oct-20 21:02 46.068516 -122.952105 21 3411ft 119kts
21-Oct-20 21:03 46.098617 -122.931266 21 3405ft 120kts
21-Oct-20 21:04 46.128707 -122.910834 20 3404ft 119kts
21-Oct-20 21:05 46.158804 -122.890517 20 3403ft 119kts
21-Oct-20 21:06 46.189408 -122.869911 20 3411ft 123kts
21-Oct-20 21:07 46.220185 -122.849160 20 3399ft 120kts
21-Oct-20 21:08 46.250419 -122.828750 20 3414ft 121kts
21-Oct-20 21:09 46.280605 -122.808087 20 3406ft 120kts
21-Oct-20 21:10 46.311009 -122.788717 19 3402ft 121kts
21-Oct-20 21:11 46.341975 -122.769527 18 3400ft 122kts
21-Oct-20 21:12 46.373136 -122.750207 19 3408ft 123kts
21-Oct-20 21:13 46.404712 -122.730710 18 3396ft 123kts
21-Oct-20 21:14 46.436541 -122.711094 18 3383ft 124kts
21-Oct-20 21:15 46.467943 -122.691606 18 3391ft 123kts
21-Oct-20 21:16 46.499523 -122.671968 19 3388ft 124kts
21-Oct-20 21:17 46.530899 -122.652302 19 3388ft 123kts
21-Oct-20 21:18 46.562404 -122.632339 19 3378ft 122kts
21-Oct-20 21:19 46.593178 -122.612884 19 3389ft 123kts
21-Oct-20 21:20 46.625528 -122.601670 349 3391ft 120kts
21-Oct-20 21:21 46.658006 -122.608711 335 3369ft 113kts
21-Oct-20 21:22 46.689082 -122.622822 336 3395ft 122kts
21-Oct-20 21:23 46.721510 -122.637364 337 3394ft 122kts
21-Oct-20 21:24 46.755419 -122.639846 18 3372ft 133kts
21-Oct-20 21:25 46.788180 -122.619652 17 3368ft 125kts
21-Oct-20 21:26 46.821007 -122.599749 18 3365ft 127kts
21-Oct-20 21:27 46.853723 -122.580268 18 3374ft 127kts
21-Oct-20 21:28 46.886674 -122.561078 18 3373ft 128kts
21-Oct-20 21:29 46.919637 -122.542030 18 3369ft 127kts
21-Oct-20 21:30 46.951968 -122.523509 18 3369ft 128kts
21-Oct-20 21:31 46.985074 -122.504614 18 3367ft 127kts
21-Oct-20 21:32 47.017666 -122.486183 18 3367ft 127kts
21-Oct-20 21:33 47.049459 -122.468411 18 3365ft 127kts
21-Oct-20 21:34 47.082693 -122.452996 6 3368ft 126kts
21-Oct-20 21:35 47.116886 -122.444597 7 3367ft 125kts
21-Oct-20 21:36 47.151023 -122.442384 356 3364ft 123kts
21-Oct-20 21:37 47.185033 -122.443398 356 3362ft 123kts
21-Oct-20 21:38 47.217350 -122.444611 357 3363ft 120kts
21-Oct-20 21:39 47.251644 -122.446126 357 3361ft 125kts
21-Oct-20 21:40 47.286086 -122.447897 357 3362ft 124kts
21-Oct-20 21:41 47.320116 -122.449821 357 3361ft 122kts
21-Oct-20 21:42 47.353712 -122.450499 19 3358ft 122kts
21-Oct-20 21:43 47.382249 -122.425725 32 3010ft 127kts
21-Oct-20 21:44 47.407563 -122.396666 47 2551ft 125kts
21-Oct-20 21:45 47.429627 -122.363102 25 2087ft 125kts
21-Oct-20 21:46 47.460728 -122.360587 1 1642ft 123kts
21-Oct-20 21:48 47.490726 -122.358776 22 1369ft 113kts
21-Oct-20 21:49 47.494382 -122.327588 134 1289ft 78kts
21-Oct-20 21:50 47.475740 -122.317935 176 822ft 80kts
21-Oct-20 21:51 47.457466 -122.317986 180 401ft 42kts
21-Oct-20 21:52 47.454483 -122.316305 43 394ft 2kts
21-Oct-20 21:53 47.454510 -122.316269 42 394ft 0kts
21-Oct-20 21:54 47.450948 -122.313523 180 393ft 44kts
21-Oct-20 21:55 47.439038 -122.313617 184 366ft 22kts
21-Oct-20 21:56 47.439591 -122.315597 126 372ft 0kts

Navigation Log

Ident Type
Flight plan parsing failed, navigation log unavailable